Time;durP1;ratioP1;P1;durP2;ratioP2;P2;SDS_P1;SDS_P2;PMS_P1;PMS_P2;Temp;Humidity;BMP_temperature;BMP_pressure;BME280_temperature;BME280_humidity;BME280_pressure;Samples;Min_cycle;Max_cycle;Signal;HPM_P1;HPM_P2
2021/07/25 00:00:11;;;;;;;17.05;10.93;;;22.70;59.50;;;;;;5034989;28;20029;-71
2021/07/25 00:02:37;;;;;;;13.95;10.15;;;22.80;59.80;;;;;;5035133;28;20045;-72
2021/07/25 00:05:05;;;;;;;14.82;10.90;;;22.80;60.00;;;;;;5035193;28;20025;-72
2021/07/25 00:07:31;;;;;;;17.20;10.70;;;22.80;60.40;;;;;;5034859;28;20408;-72
2021/07/25 00:09:56;;;;;;;14.75;10.00;;;22.80;60.50;;;;;;5034847;28;20032;-72
2021/07/25 00:12:22;;;;;;;14.32;10.63;;;22.80;60.50;;;;;;5035003;28;20456;-72
2021/07/25 00:14:48;;;;;;;13.70;10.35;;;22.70;60.60;;;;;;5034372;28;20036;-71
2021/07/25 00:17:13;;;;;;;16.10;11.77;;;22.70;60.80;;;;;;5034448;28;20036;-72
2021/07/25 00:19:39;;;;;;;16.85;12.88;;;22.70;61.20;;;;;;5034394;28;20028;-72
2021/07/25 00:22:06;;;;;;;16.75;12.88;;;22.70;61.50;;;;;;5034502;28;20030;-72
2021/07/25 00:24:35;;;;;;;17.25;12.45;;;22.70;61.90;;;;;;5034568;28;20059;-72
2021/07/25 00:27:01;;;;;;;16.40;12.98;;;22.70;61.80;;;;;;5034180;28;20530;-72
2021/07/25 00:29:31;;;;;;;17.45;12.30;;;22.60;61.70;;;;;;5034378;28;20075;-72
2021/07/25 00:32:04;;;;;;;16.23;11.73;;;22.60;61.60;;;;;;5034381;28;20103;-72
2021/07/25 00:34:32;;;;;;;18.75;12.93;;;22.60;61.70;;;;;;5034348;28;20033;-71
2021/07/25 00:36:58;;;;;;;17.45;12.82;;;22.60;61.70;;;;;;5034312;28;20040;-72
2021/07/25 00:39:25;;;;;;;18.20;12.68;;;22.60;61.60;;;;;;5034530;28;20030;-72
2021/07/25 00:41:50;;;;;;;15.85;11.52;;;22.60;61.80;;;;;;5033878;28;20472;-72
2021/07/25 00:44:17;;;;;;;18.30;11.70;;;22.50;61.60;;;;;;5034128;28;20083;-72
2021/07/25 00:46:51;;;;;;;18.75;11.65;;;22.50;61.40;;;;;;5034102;28;20450;-72
2021/07/25 00:49:16;;;;;;;15.20;10.52;;;22.50;61.10;;;;;;5034095;28;20476;-72
2021/07/25 00:51:43;;;;;;;14.10;10.30;;;22.50;60.80;;;;;;5033984;28;20140;-72
2021/07/25 00:54:09;;;;;;;14.98;10.50;;;22.40;60.40;;;;;;5033960;28;20494;-72
2021/07/25 00:56:35;;;;;;;16.55;10.93;;;22.40;60.50;;;;;;5033972;28;20034;-72
2021/07/25 00:59:02;;;;;;;20.65;12.68;;;22.30;60.90;;;;;;5034054;28;20087;-72
2021/07/25 01:01:27;;;;;;;17.77;12.20;;;22.30;61.40;;;;;;5034366;28;20026;-72
2021/07/25 01:04:08;;;;;;;16.92;12.23;;;22.20;61.80;;;;;;5033944;28;20052;-72
2021/07/25 01:06:58;;;;;;;15.60;10.20;;;22.20;62.50;;;;;;5032446;28;20487;-73
2021/07/25 01:09:27;;;;;;;13.25;10.38;;;22.20;62.00;;;;;;5034306;28;20052;-72
2021/07/25 01:11:57;;;;;;;13.75;11.75;;;22.20;61.80;;;;;;5033690;28;20026;-72
2021/07/25 01:14:32;;;;;;;19.20;10.90;;;22.20;62.40;;;;;;5034114;28;20419;-72
2021/07/25 01:17:22;;;;;;;14.93;10.95;;;22.20;62.50;;;;;;5033330;28;20384;-72
2021/07/25 01:19:49;;;;;;;13.45;10.43;;;22.20;62.50;;;;;;5033862;28;20061;-72
2021/07/25 01:22:15;;;;;;;15.02;11.32;;;22.20;62.50;;;;;;5033788;28;20036;-72
2021/07/25 01:24:41;;;;;;;15.63;11.23;;;22.30;62.30;;;;;;5033811;28;20029;-72
2021/07/25 01:27:10;;;;;;;16.40;12.70;;;22.30;62.20;;;;;;5033520;28;20083;-72
2021/07/25 01:29:40;;;;;;;17.63;12.02;;;22.30;62.40;;;;;;5032969;28;20056;-73
2021/07/25 01:32:06;;;;;;;13.80;11.20;;;22.30;62.50;;;;;;5033714;28;20029;-72
2021/07/25 01:34:34;;;;;;;14.35;10.52;;;22.30;62.70;;;;;;5033536;28;20044;-72
2021/07/25 01:37:01;;;;;;;13.60;11.95;;;22.20;62.20;;;;;;5033143;28;20025;-72
2021/07/25 01:39:27;;;;;;;17.50;11.82;;;22.20;62.70;;;;;;5033948;28;20414;-72
2021/07/25 01:41:52;;;;;;;33.80;21.92;;;22.20;62.90;;;;;;5033090;28;20021;-72
2021/07/25 01:44:19;;;;;;;35.30;22.40;;;22.20;63.90;;;;;;5033391;28;20052;-72
2021/07/25 01:46:45;;;;;;;32.03;21.92;;;22.20;64.20;;;;;;5034106;28;20030;-72
2021/07/25 01:49:10;;;;;;;26.13;18.00;;;22.10;64.30;;;;;;5033030;28;20029;-73
2021/07/25 01:51:36;;;;;;;28.85;17.77;;;22.10;64.20;;;;;;5033231;28;20124;-76
2021/07/25 01:54:02;;;;;;;31.02;22.02;;;22.10;64.20;;;;;;5033206;28;20121;-72
2021/07/25 01:56:28;;;;;;;31.38;20.65;;;22.10;64.70;;;;;;5033647;28;20025;-72
2021/07/25 01:58:56;;;;;;;34.80;18.25;;;22.00;65.10;;;;;;5033459;28;20413;-72
2021/07/25 02:01:22;;;;;;;29.80;18.95;;;22.00;65.30;;;;;;5033466;28;20025;-72
2021/07/25 02:03:47;;;;;;;26.02;18.38;;;22.00;65.40;;;;;;5034288;28;20057;-72
2021/07/25 02:06:13;;;;;;;24.48;17.67;;;22.00;65.60;;;;;;5033011;28;20060;-72
2021/07/25 02:08:39;;;;;;;22.33;17.13;;;22.00;65.80;;;;;;5033389;28;20041;-72
2021/07/25 02:11:08;;;;;;;23.90;17.13;;;22.00;65.90;;;;;;5032869;28;20068;-72
2021/07/25 02:13:34;;;;;;;21.60;15.93;;;22.00;66.10;;;;;;5033339;28;20030;-72
2021/07/25 02:16:00;;;;;;;22.33;15.27;;;22.00;65.90;;;;;;5033024;28;20462;-72
2021/07/25 02:18:26;;;;;;;24.75;17.52;;;21.90;65.60;;;;;;5033310;28;20101;-72
2021/07/25 02:20:52;;;;;;;25.48;17.13;;;21.90;65.60;;;;;;5033077;28;20120;-72
2021/07/25 02:23:17;;;;;;;24.13;16.75;;;21.90;66.10;;;;;;5032992;28;20030;-71
2021/07/25 02:25:43;;;;;;;26.25;17.77;;;21.90;65.40;;;;;;5032684;28;20436;-72
2021/07/25 02:28:09;;;;;;;33.65;23.23;;;21.90;65.40;;;;;;5032954;28;20079;-72
2021/07/25 02:30:35;;;;;;;44.05;28.92;;;22.00;65.70;;;;;;5032878;28;20448;-71
2021/07/25 02:33:01;;;;;;;40.15;25.38;;;22.00;65.60;;;;;;5032917;28;20034;-72
2021/07/25 02:35:27;;;;;;;38.75;26.08;;;22.00;65.60;;;;;;5033140;28;20057;-71
2021/07/25 02:37:53;;;;;;;34.47;22.98;;;22.00;65.70;;;;;;5032918;28;20108;-72
2021/07/25 02:40:18;;;;;;;31.55;20.27;;;22.00;65.80;;;;;;5033578;28;20522;-71
2021/07/25 02:42:44;;;;;;;27.63;17.50;;;21.90;65.90;;;;;;5036936;28;20025;-71
2021/07/25 02:45:10;;;;;;;26.80;18.00;;;22.00;66.30;;;;;;5036429;28;20060;-71
2021/07/25 02:47:36;;;;;;;28.23;18.52;;;22.00;66.50;;;;;;5036183;28;20391;-71
2021/07/25 02:50:02;;;;;;;27.50;19.00;;;21.90;66.50;;;;;;5036628;28;20025;-71
2021/07/25 02:52:28;;;;;;;23.95;17.05;;;22.00;66.60;;;;;;5035953;28;20018;-71
2021/07/25 02:54:54;;;;;;;27.27;19.35;;;22.00;66.70;;;;;;5036395;28;20444;-71
2021/07/25 02:57:19;;;;;;;29.65;20.08;;;22.00;66.70;;;;;;5035879;28;20037;-71
2021/07/25 02:59:45;;;;;;;31.60;20.23;;;22.00;66.60;;;;;;5036410;28;20030;-71
2021/07/25 03:02:11;;;;;;;27.65;19.50;;;21.90;66.60;;;;;;5036362;28;20491;-71
2021/07/25 03:04:37;;;;;;;25.63;18.33;;;21.90;66.80;;;;;;5036599;28;20030;-72
2021/07/25 03:07:02;;;;;;;23.25;16.20;;;21.90;66.60;;;;;;5035955;28;20029;-72
2021/07/25 03:09:28;;;;;;;22.38;15.73;;;21.90;66.50;;;;;;5035955;28;20025;-72
2021/07/25 03:11:54;;;;;;;27.77;18.17;;;21.90;66.30;;;;;;5035603;28;20025;-72
2021/07/25 03:14:19;;;;;;;30.20;19.60;;;21.90;66.60;;;;;;5036047;28;20112;-72
2021/07/25 03:16:46;;;;;;;26.88;18.48;;;22.00;66.80;;;;;;5035840;28;20410;-71
2021/07/25 03:19:12;;;;;;;25.73;18.33;;;22.00;67.00;;;;;;5035739;28;20030;-72
2021/07/25 03:21:38;;;;;;;26.50;19.65;;;22.10;66.90;;;;;;5034492;28;20052;-72
2021/07/25 03:24:04;;;;;;;28.05;18.20;;;22.10;66.80;;;;;;5035629;28;20025;-72
2021/07/25 03:26:30;;;;;;;24.05;18.75;;;22.20;66.70;;;;;;5035944;28;20040;-72
2021/07/25 03:28:55;;;;;;;26.48;18.23;;;22.20;66.70;;;;;;5035560;28;20080;-72
2021/07/25 03:31:21;;;;;;;28.58;19.60;;;22.20;66.60;;;;;;5034855;28;20061;-72
2021/07/25 03:33:47;;;;;;;27.60;19.40;;;22.30;66.70;;;;;;5035658;28;20036;-72
2021/07/25 03:36:13;;;;;;;23.85;18.90;;;22.30;66.60;;;;;;5035463;28;20037;-72
2021/07/25 03:38:38;;;;;;;25.70;17.70;;;22.30;66.40;;;;;;5035375;28;20031;-72
2021/07/25 03:41:05;;;;;;;22.55;17.77;;;22.30;66.30;;;;;;5035321;28;20021;-72
2021/07/25 03:43:31;;;;;;;22.85;16.90;;;22.40;66.30;;;;;;5035084;28;20030;-72
2021/07/25 03:45:57;;;;;;;21.08;17.58;;;22.40;66.30;;;;;;5036075;28;20060;-71
2021/07/25 03:48:25;;;;;;;24.83;16.95;;;22.50;66.20;;;;;;5035986;28;20432;-73
2021/07/25 03:50:52;;;;;;;23.02;16.80;;;22.50;66.20;;;;;;5035196;28;20018;-72
2021/07/25 03:53:18;;;;;;;23.92;17.05;;;22.50;66.10;;;;;;5034668;28;20368;-72
2021/07/25 03:55:44;;;;;;;23.65;16.73;;;22.60;66.20;;;;;;5033716;28;20029;-72
2021/07/25 03:58:11;;;;;;;23.75;16.92;;;22.60;66.20;;;;;;5035046;28;20068;-72
2021/07/25 04:00:37;;;;;;;21.38;16.33;;;22.70;66.20;;;;;;5034943;28;20034;-72
2021/07/25 04:03:03;;;;;;;21.48;16.27;;;22.70;66.20;;;;;;5035538;28;20132;-72
2021/07/25 04:05:28;;;;;;;23.38;17.85;;;22.80;66.30;;;;;;5033583;28;20057;-72
2021/07/25 04:07:54;;;;;;;24.13;17.95;;;22.90;66.40;;;;;;5034841;28;20025;-72
2021/07/25 04:10:20;;;;;;;23.15;17.67;;;22.90;66.40;;;;;;5034490;28;20067;-73
2021/07/25 04:12:46;;;;;;;26.10;18.45;;;22.90;66.40;;;;;;5034671;28;20040;-72
2021/07/25 04:15:12;;;;;;;26.40;17.10;;;23.00;66.60;;;;;;5034767;28;20038;-71
2021/07/25 04:17:38;;;;;;;22.95;16.33;;;23.10;66.60;;;;;;5034948;28;20045;-71
2021/07/25 04:20:04;;;;;;;23.98;17.95;;;23.10;66.60;;;;;;5034568;28;20111;-71
2021/07/25 04:22:38;;;;;;;24.02;16.65;;;23.10;66.60;;;;;;5034616;28;20026;-71
2021/07/25 04:25:05;;;;;;;23.73;16.63;;;23.20;66.70;;;;;;5035074;28;20102;-71
2021/07/25 04:27:31;;;;;;;23.63;17.95;;;23.30;66.70;;;;;;5034162;28;20255;-72
2021/07/25 04:29:57;;;;;;;21.35;16.58;;;23.40;66.80;;;;;;5034415;28;20048;-72
2021/07/25 04:32:24;;;;;;;21.40;16.17;;;23.50;66.90;;;;;;5034774;28;20030;-72
2021/07/25 04:34:50;;;;;;;22.13;16.17;;;23.50;67.00;;;;;;5034897;28;20037;-73
2021/07/25 04:37:30;;;;;;;22.35;16.35;;;23.60;66.90;;;;;;5034827;28;20053;-72
2021/07/25 04:39:56;;;;;;;18.58;15.18;;;23.60;67.00;;;;;;5032974;28;20029;-72
2021/07/25 04:42:24;;;;;;;21.05;15.98;;;23.70;67.10;;;;;;5034267;28;20053;-72
2021/07/25 04:45:04;;;;;;;19.95;15.80;;;23.80;67.50;;;;;;5034101;28;20430;-72
2021/07/25 04:47:36;;;;;;;18.90;14.98;;;23.90;67.60;;;;;;5034486;28;20025;-72
2021/07/25 04:50:06;;;;;;;19.67;15.40;;;24.00;67.50;;;;;;5033739;28;20071;-72
2021/07/25 04:52:41;;;;;;;19.70;14.57;;;24.10;67.40;;;;;;5034276;28;20108;-72
2021/07/25 04:55:12;;;;;;;21.00;15.73;;;24.20;67.20;;;;;;5033850;28;20380;-72
2021/07/25 04:57:43;;;;;;;22.48;17.05;;;24.30;67.00;;;;;;5033925;28;20025;-72
2021/07/25 05:00:14;;;;;;;23.77;15.05;;;24.40;67.10;;;;;;5033976;28;20491;-71
2021/07/25 05:02:42;;;;;;;20.25;15.30;;;24.50;66.80;;;;;;5033647;28;20132;-72
2021/07/25 05:05:09;;;;;;;22.63;16.35;;;24.60;66.70;;;;;;5033652;28;20468;-72
2021/07/25 05:07:42;;;;;;;25.88;17.08;;;24.70;66.80;;;;;;5033341;28;20131;-72
2021/07/25 05:10:09;;;;;;;20.70;15.30;;;24.80;66.70;;;;;;5033638;28;20100;-71
2021/07/25 05:12:47;;;;;;;23.88;15.85;;;24.90;66.50;;;;;;5034171;28;20456;-71
2021/07/25 05:15:28;;;;;;;22.70;16.25;;;25.00;66.20;;;;;;5033791;28;20034;-71
2021/07/25 05:18:00;;;;;;;26.20;17.15;;;25.20;65.90;;;;;;5033731;28;20478;-71
2021/07/25 05:20:35;;;;;;;20.60;16.17;;;25.20;65.70;;;;;;5032504;28;20065;-72
2021/07/25 05:23:09;;;;;;;22.23;15.98;;;25.30;65.50;;;;;;5033531;28;20037;-71
2021/07/25 05:25:40;;;;;;;23.00;16.80;;;25.40;65.40;;;;;;5033572;28;20053;-73
2021/07/25 05:28:06;;;;;;;23.10;15.70;;;25.40;65.20;;;;;;5033547;28;20042;-72
2021/07/25 05:30:33;;;;;;;22.30;14.55;;;25.50;65.10;;;;;;5033753;28;20025;-72
2021/07/25 05:32:59;;;;;;;21.52;16.38;;;25.60;64.90;;;;;;5033186;28;20476;-72
2021/07/25 05:35:25;;;;;;;20.20;14.63;;;25.70;64.80;;;;;;5033296;28;20037;-73
2021/07/25 05:37:50;;;;;;;20.95;15.52;;;25.80;64.40;;;;;;5032699;28;20029;-75
2021/07/25 05:40:16;;;;;;;22.10;15.05;;;25.90;64.00;;;;;;5033353;28;20033;-73
2021/07/25 05:42:43;;;;;;;20.13;14.60;;;26.10;63.60;;;;;;5033474;28;20026;-72
2021/07/25 05:45:11;;;;;;;21.02;14.95;;;26.20;63.20;;;;;;5033859;28;20033;-73
2021/07/25 05:47:37;;;;;;;20.95;13.70;;;26.30;62.90;;;;;;5033396;28;20425;-72
2021/07/25 05:50:05;;;;;;;19.77;14.55;;;26.40;62.60;;;;;;5033209;28;20107;-72
2021/07/25 05:52:51;;;;;;;18.98;14.15;;;26.50;62.20;;;;;;5033598;28;20025;-72
2021/07/25 05:55:29;;;;;;;22.73;15.98;;;26.60;61.30;;;;;;5033518;28;20419;-71
2021/07/25 05:57:55;;;;;;;18.08;13.52;;;26.70;61.20;;;;;;5033219;28;20030;-72
2021/07/25 06:00:21;;;;;;;20.10;14.35;;;26.70;61.00;;;;;;5033491;28;20036;-72
2021/07/25 06:02:53;;;;;;;19.77;13.98;;;26.80;60.90;;;;;;5033582;28;20072;-72
2021/07/25 06:05:20;;;;;;;19.23;13.38;;;27.00;61.10;;;;;;5033158;28;20026;-72
2021/07/25 06:07:46;;;;;;;18.52;13.73;;;27.00;61.10;;;;;;5033051;28;20075;-71
2021/07/25 06:10:12;;;;;;;21.27;13.77;;;27.10;61.40;;;;;;5032951;28;20088;-71
2021/07/25 06:12:38;;;;;;;16.35;11.88;;;27.30;61.50;;;;;;5031953;28;20036;-71
2021/07/25 06:15:04;;;;;;;15.23;12.18;;;27.30;60.10;;;;;;5033275;28;20041;-71
2021/07/25 06:17:31;;;;;;;16.77;12.75;;;27.40;59.50;;;;;;5036746;28;20029;-74
2021/07/25 06:19:57;;;;;;;14.48;11.70;;;27.40;58.40;;;;;;5037047;28;20036;-72
2021/07/25 06:22:22;;;;;;;14.93;11.90;;;27.40;57.90;;;;;;5036689;28;20025;-72
2021/07/25 06:24:48;;;;;;;21.15;12.55;;;27.40;57.60;;;;;;5036769;28;20025;-73
2021/07/25 06:27:14;;;;;;;16.60;12.27;;;27.50;57.30;;;;;;5036724;28;20032;-72
2021/07/25 06:29:40;;;;;;;14.38;12.50;;;27.50;56.80;;;;;;5035460;28;20025;-72
2021/07/25 06:32:08;;;;;;;19.38;12.10;;;27.60;56.40;;;;;;5036560;28;20025;-73
2021/07/25 06:34:34;;;;;;;18.25;12.82;;;27.70;56.20;;;;;;5037266;28;20107;-73
2021/07/25 06:37:00;;;;;;;17.65;12.20;;;27.80;56.00;;;;;;5036338;28;20041;-72
2021/07/25 06:39:26;;;;;;;15.82;11.38;;;27.90;55.40;;;;;;5036359;28;20033;-73
2021/07/25 06:41:51;;;;;;;17.70;12.02;;;28.00;55.20;;;;;;5035892;28;20026;-72
2021/07/25 06:44:17;;;;;;;18.13;12.25;;;28.10;55.20;;;;;;5034535;28;20394;-72
2021/07/25 06:46:43;;;;;;;16.17;12.77;;;28.20;55.80;;;;;;5036193;28;20025;-71
2021/07/25 06:49:08;;;;;;;17.63;13.10;;;28.30;56.60;;;;;;5036280;28;20025;-74
2021/07/25 06:51:36;;;;;;;17.55;12.57;;;28.30;57.50;;;;;;5036520;28;20025;-72
2021/07/25 06:54:02;;;;;;;14.80;11.45;;;28.40;58.00;;;;;;5034930;28;20029;-73
2021/07/25 06:56:27;;;;;;;15.68;12.48;;;28.40;58.40;;;;;;5036507;28;20028;-73
2021/07/25 06:58:53;;;;;;;16.42;13.05;;;28.50;58.40;;;;;;5036455;28;20029;-73
2021/07/25 07:01:19;;;;;;;17.20;12.88;;;28.60;58.40;;;;;;5036209;28;20022;-74
2021/07/25 07:03:44;;;;;;;16.75;11.73;;;28.60;58.50;;;;;;5036638;28;20055;-74
2021/07/25 07:06:10;;;;;;;13.32;11.10;;;28.70;58.50;;;;;;5035906;28;20464;-73
2021/07/25 07:08:36;;;;;;;16.30;13.15;;;28.80;58.20;;;;;;5036151;28;20086;-72
2021/07/25 07:11:02;;;;;;;13.43;11.32;;;28.90;58.10;;;;;;5036293;28;20452;-73
2021/07/25 07:13:27;;;;;;;12.98;11.52;;;28.90;57.80;;;;;;5035704;28;20468;-73
2021/07/25 07:15:53;;;;;;;17.17;11.93;;;28.90;57.50;;;;;;5035559;28;20072;-73
2021/07/25 07:18:19;;;;;;;13.10;10.90;;;29.00;57.30;;;;;;5035510;28;20117;-73
2021/07/25 07:20:45;;;;;;;12.10;9.95;;;29.00;56.70;;;;;;5036220;28;20053;-73
2021/07/25 07:23:13;;;;;;;15.90;10.27;;;29.10;56.40;;;;;;5034183;28;20157;-73
2021/07/25 07:25:43;;;;;;;17.27;9.95;;;29.10;55.90;;;;;;5035496;28;20064;-73
2021/07/25 07:28:09;;;;;;;14.60;10.13;;;29.20;55.80;;;;;;5034091;28;20030;-73
2021/07/25 07:30:36;;;;;;;12.38;9.40;;;29.20;54.50;;;;;;5035386;28;20468;-74
2021/07/25 07:33:14;;;;;;;11.40;9.32;;;29.20;54.10;;;;;;5035324;28;20470;-73
2021/07/25 07:35:41;;;;;;;13.25;9.98;;;29.20;53.80;;;;;;5035072;28;20079;-74
2021/07/25 07:38:07;;;;;;;15.75;9.60;;;29.30;53.80;;;;;;5035630;28;20448;-73
2021/07/25 07:40:34;;;;;;;16.52;12.32;;;29.50;53.60;;;;;;5035538;28;20471;-73
2021/07/25 07:43:00;;;;;;;17.83;12.27;;;29.60;53.30;;;;;;5035168;28;20060;-74
2021/07/25 07:45:26;;;;;;;14.05;11.38;;;29.70;53.00;;;;;;5035044;28;20026;-73
2021/07/25 07:47:52;;;;;;;14.98;10.88;;;29.80;53.00;;;;;;5035278;28;20044;-73
2021/07/25 07:50:19;;;;;;;14.32;10.60;;;29.90;53.10;;;;;;5034409;28;20356;-73
2021/07/25 07:52:45;;;;;;;15.88;10.25;;;30.00;53.20;;;;;;5034568;28;20422;-73
2021/07/25 07:55:11;;;;;;;15.65;10.40;;;30.00;53.00;;;;;;5034838;28;20056;-73
2021/07/25 07:57:37;;;;;;;16.15;10.13;;;30.10;52.10;;;;;;5033232;28;20148;-73
2021/07/25 08:00:05;;;;;;;14.70;11.57;;;30.20;51.80;;;;;;5035740;28;20132;-73
2021/07/25 08:02:31;;;;;;;14.80;11.35;;;30.40;51.40;;;;;;5034715;28;20132;-73
2021/07/25 08:05:01;;;;;;;17.70;11.82;;;30.50;51.00;;;;;;5034527;28;20120;-72
2021/07/25 08:07:27;;;;;;;12.77;10.63;;;30.70;50.50;;;;;;5034767;28;20029;-72
2021/07/25 08:09:52;;;;;;;12.73;10.00;;;30.80;50.20;;;;;;5033970;28;20029;-73
2021/07/25 08:12:18;;;;;;;13.20;9.45;;;31.00;49.80;;;;;;5034578;28;20391;-73
2021/07/25 08:14:46;;;;;;;10.57;8.88;;;31.20;49.00;;;;;;5034414;28;20076;-73
2021/07/25 08:17:12;;;;;;;11.27;9.57;;;31.50;47.80;;;;;;5034472;28;20033;-72
2021/07/25 08:19:38;;;;;;;12.32;10.23;;;31.70;47.40;;;;;;5034370;28;20087;-72
2021/07/25 08:22:07;;;;;;;13.77;9.27;;;31.70;47.70;;;;;;5034241;28;20026;-72
2021/07/25 08:24:38;;;;;;;13.18;8.55;;;31.90;46.90;;;;;;5034412;28;20083;-72
2021/07/25 08:27:06;;;;;;;10.90;8.25;;;32.00;47.40;;;;;;5034552;28;20029;-72
2021/07/25 08:29:31;;;;;;;13.70;8.63;;;32.10;47.30;;;;;;5034208;28;20083;-72
2021/07/25 08:31:59;;;;;;;10.27;7.85;;;32.20;47.40;;;;;;5034603;28;20029;-72
2021/07/25 08:34:25;;;;;;;10.05;7.55;;;32.30;47.20;;;;;;5033697;28;20040;-73
2021/07/25 08:36:51;;;;;;;11.95;7.80;;;32.40;47.00;;;;;;5033929;28;20036;-72
2021/07/25 08:39:17;;;;;;;10.73;7.72;;;32.40;46.40;;;;;;5033776;28;20104;-72
2021/07/25 08:41:56;;;;;;;12.77;8.10;;;32.40;45.90;;;;;;5034273;28;20464;-71
2021/07/25 08:44:38;;;;;;;9.85;8.07;;;32.20;45.90;;;;;;5034025;28;20041;-71
2021/07/25 08:47:12;;;;;;;8.55;7.60;;;32.00;46.20;;;;;;5033990;28;20029;-73
2021/07/25 08:49:56;;;;;;;10.07;8.38;;;32.00;46.80;;;;;;5033887;28;20025;-72
2021/07/25 08:52:24;;;;;;;10.40;7.70;;;31.80;47.00;;;;;;5033719;28;20434;-73
2021/07/25 08:54:50;;;;;;;8.63;7.72;;;31.70;46.90;;;;;;5034645;28;20041;-73
2021/07/25 08:57:20;;;;;;;8.88;7.97;;;31.60;47.00;;;;;;5034020;28;20029;-73
2021/07/25 08:59:49;;;;;;;11.25;7.80;;;31.50;46.90;;;;;;5033699;28;20052;-73
2021/07/25 09:02:22;;;;;;;9.43;7.35;;;31.50;47.00;;;;;;5033883;28;20102;-73
2021/07/25 09:04:48;;;;;;;8.80;7.45;;;31.40;46.90;;;;;;5033951;28;20044;-73
2021/07/25 09:07:15;;;;;;;10.40;7.50;;;31.50;46.80;;;;;;5033914;28;20104;-72
2021/07/25 09:09:45;;;;;;;10.38;7.53;;;31.60;46.80;;;;;;5033822;28;20029;-73
2021/07/25 09:12:13;;;;;;;8.45;7.53;;;31.70;46.50;;;;;;5033530;28;20048;-72
2021/07/25 09:14:50;;;;;;;8.00;7.20;;;31.90;46.10;;;;;;5033514;28;20029;-73
2021/07/25 09:17:17;;;;;;;12.48;7.78;;;32.30;45.70;;;;;;5034048;28;20104;-73
2021/07/25 09:20:08;;;;;;;7.95;7.05;;;32.70;45.50;;;;;;5033481;28;20026;-72
2021/07/25 09:22:33;;;;;;;15.40;7.63;;;33.00;45.10;;;;;;5033225;28;20026;-73
2021/07/25 09:24:59;;;;;;;9.82;8.15;;;33.10;45.00;;;;;;5033552;28;20490;-72
2021/07/25 09:27:25;;;;;;;10.15;7.50;;;33.20;44.40;;;;;;5033429;28;20460;-72
2021/07/25 09:29:50;;;;;;;8.50;7.40;;;33.30;44.30;;;;;;5033520;28;20036;-72
2021/07/25 09:32:18;;;;;;;13.02;6.80;;;33.50;44.10;;;;;;5032979;28;20029;-73
2021/07/25 09:34:51;;;;;;;9.23;6.72;;;33.90;43.80;;;;;;5033089;28;20487;-73
2021/07/25 09:37:23;;;;;;;12.55;6.78;;;34.30;43.20;;;;;;5034073;28;20025;-73
2021/07/25 09:39:52;;;;;;;9.25;7.25;;;34.90;42.90;;;;;;5033635;28;20022;-73
2021/07/25 09:42:29;;;;;;;7.97;7.18;;;35.40;42.40;;;;;;5033083;28;20032;-73
2021/07/25 09:44:57;;;;;;;10.55;7.40;;;35.90;41.40;;;;;;5032776;28;20030;-73
2021/07/25 09:47:44;;;;;;;8.15;6.93;;;36.40;41.10;;;;;;5033049;28;20022;-74
2021/07/25 09:50:10;;;;;;;11.02;6.70;;;36.80;40.30;;;;;;5033792;28;20040;-73
2021/07/25 09:52:38;;;;;;;8.85;6.82;;;37.20;40.50;;;;;;5037125;28;20029;-73
2021/07/25 09:55:06;;;;;;;9.43;6.97;;;37.40;39.50;;;;;;5037157;28;20313;-73
2021/07/25 09:57:33;;;;;;;9.52;6.85;;;37.50;38.80;;;;;;5037063;28;20029;-73
2021/07/25 10:00:08;;;;;;;10.77;6.57;;;37.70;38.50;;;;;;5037121;28;20036;-72
2021/07/25 10:02:38;;;;;;;7.82;6.95;;;37.90;38.40;;;;;;5037086;28;20140;-72
2021/07/25 10:05:17;;;;;;;8.82;6.53;;;38.10;38.20;;;;;;5036824;28;20033;-72
2021/07/25 10:07:45;;;;;;;22.88;14.50;;;38.30;37.90;;;;;;5037020;28;20021;-72
2021/07/25 10:10:13;;;;;;;8.20;6.60;;;38.50;37.40;;;;;;5036997;28;20040;-71
2021/07/25 10:12:40;;;;;;;8.23;7.43;;;38.70;37.30;;;;;;5036892;28;20029;-71
2021/07/25 10:15:09;;;;;;;7.80;6.63;;;38.80;36.90;;;;;;5036923;28;20033;-72
2021/07/25 10:17:37;;;;;;;10.13;6.63;;;39.00;36.50;;;;;;5036730;28;20058;-72
2021/07/25 10:20:06;;;;;;;7.22;6.53;;;39.20;36.60;;;;;;5036458;28;20098;-72
2021/07/25 10:22:34;;;;;;;9.95;6.32;;;39.30;35.90;;;;;;5036026;28;20037;-73
2021/07/25 10:25:08;;;;;;;8.23;6.22;;;39.50;35.80;;;;;;5036441;28;20056;-75
2021/07/25 10:27:36;;;;;;;8.00;6.53;;;39.60;35.60;;;;;;5036384;28;20029;-71
2021/07/25 10:30:07;;;;;;;7.50;6.70;;;39.70;35.80;;;;;;5036274;28;20031;-74
2021/07/25 10:32:36;;;;;;;9.45;6.53;;;39.80;35.60;;;;;;5036310;28;20026;-75
2021/07/25 10:35:05;;;;;;;7.25;6.47;;;40.00;35.50;;;;;;5036366;28;20120;-72
2021/07/25 10:37:40;;;;;;;7.05;6.03;;;40.00;35.20;;;;;;5035896;28;20030;-76
2021/07/25 10:40:09;;;;;;;7.35;5.85;;;40.00;35.00;;;;;;5036153;28;20158;-72
2021/07/25 10:42:49;;;;;;;6.50;5.93;;;40.10;35.00;;;;;;5035380;28;20037;-73
2021/07/25 10:45:15;;;;;;;7.78;5.93;;;39.90;35.00;;;;;;5036262;28;20052;-75
2021/07/25 10:47:43;;;;;;;8.90;5.78;;;39.50;35.40;;;;;;5036233;28;20033;-74
2021/07/25 10:50:15;;;;;;;8.98;5.88;;;39.30;35.80;;;;;;5036048;28;20025;-73
2021/07/25 10:55:43;;;;;;;7.22;5.90;;;39.90;35.40;;;;;;5035790;28;20350;-73
2021/07/25 10:58:20;;;;;;;8.05;6.00;;;40.40;35.10;;;;;;5036411;28;20506;-73
2021/07/25 11:00:57;;;;;;;6.78;6.00;;;40.70;34.30;;;;;;5036061;28;20025;-73
2021/07/25 11:03:25;;;;;;;7.13;5.75;;;41.10;33.70;;;;;;5036064;28;20103;-74
2021/07/25 11:06:07;;;;;;;6.45;5.75;;;41.40;33.50;;;;;;5035463;28;20036;-73
2021/07/25 11:08:37;;;;;;;7.65;6.40;;;41.70;33.20;;;;;;5035551;28;20080;-74
2021/07/25 11:11:39;;;;;;;7.78;5.43;;;42.10;33.10;;;;;;5035649;28;20025;-74
2021/07/25 11:14:07;;;;;;;7.35;5.93;;;42.30;33.10;;;;;;5035222;28;20104;-74
2021/07/25 11:16:32;;;;;;;6.75;5.90;;;42.60;32.70;;;;;;5035465;28;20029;-75
2021/07/25 11:19:18;;;;;;;8.48;5.35;;;42.70;32.50;;;;;;5035488;28;20028;-74
2021/07/25 11:21:44;;;;;;;7.72;6.10;;;43.00;32.60;;;;;;5036030;28;20076;-74
2021/07/25 11:24:18;;;;;;;18.60;7.53;;;43.20;32.70;;;;;;5035567;28;20353;-74
2021/07/25 11:26:49;;;;;;;6.38;5.78;;;43.50;32.80;;;;;;5035421;28;20367;-75
2021/07/25 11:29:40;;;;;;;8.00;5.68;;;43.60;32.20;;;;;;5034892;28;20047;-72
2021/07/25 11:32:36;;;;;;;6.47;5.18;;;43.80;32.00;;;;;;5035617;28;20408;-75
2021/07/25 11:35:07;;;;;;;5.70;5.13;;;44.00;31.70;;;;;;5035508;28;20049;-72
2021/07/25 11:37:40;;;;;;;6.75;5.53;;;44.20;31.40;;;;;;5035387;28;20060;-73
2021/07/25 11:40:06;;;;;;;;;;;44.40;31.30;;;;;;5035425;28;20026;-75
2021/07/25 11:42:33;;;;;;;5.47;4.97;;;44.50;31.70;;;;;;5034981;28;19909;-73
2021/07/25 11:45:06;;;;;;;6.50;4.88;;;44.60;31.10;;;;;;5035481;28;20045;-73
2021/07/25 11:47:33;;;;;;;7.10;4.85;;;44.90;30.90;;;;;;5034911;28;20030;-72
2021/07/25 11:49:59;;;;;;;6.55;5.32;;;45.00;30.70;;;;;;5035061;28;20511;-73
2021/07/25 11:52:27;;;;;;;4.82;4.43;;;45.20;30.60;;;;;;5034858;28;20105;-73
2021/07/25 11:54:53;;;;;;;5.15;4.47;;;45.40;30.50;;;;;;5034831;28;20566;-74
2021/07/25 11:57:27;;;;;;;4.82;4.43;;;45.60;30.10;;;;;;5035329;28;20100;-74
2021/07/25 12:00:04;;;;;;;5.70;4.47;;;45.80;30.10;;;;;;5034738;28;20037;-72
2021/07/25 12:02:38;;;;;;;5.47;4.90;;;46.00;30.00;;;;;;5034761;28;20049;-73
2021/07/25 12:05:04;;;;;;;5.03;4.53;;;46.10;29.90;;;;;;5035145;28;20029;-73
2021/07/25 12:07:35;;;;;;;5.15;4.65;;;46.20;29.80;;;;;;5034201;28;20060;-73
2021/07/25 12:10:02;;;;;;;5.50;4.60;;;46.30;29.60;;;;;;5035150;28;20452;-74
2021/07/25 12:12:30;;;;;;;7.68;4.72;;;46.40;29.80;;;;;;5034539;28;20093;-74
2021/07/25 12:15:00;;;;;;;5.78;5.18;;;46.60;29.70;;;;;;5034274;28;20495;-73
2021/07/25 12:17:45;;;;;;;5.75;5.00;;;46.70;29.60;;;;;;5033783;28;20044;-73
2021/07/25 12:20:20;;;;;;;5.85;5.13;;;46.80;29.50;;;;;;5034440;28;20069;-73
2021/07/25 12:22:50;;;;;;;11.32;5.68;;;46.80;29.60;;;;;;5034599;28;20026;-73
2021/07/25 12:25:16;;;;;;;8.23;5.00;;;46.90;29.90;;;;;;5034471;28;20068;-73
2021/07/25 12:27:42;;;;;;;5.40;4.88;;;46.80;29.80;;;;;;5034480;28;20514;-73
2021/07/25 12:30:12;;;;;;;7.93;5.40;;;46.10;29.70;;;;;;5034298;28;20065;-73
2021/07/25 12:32:38;;;;;;;8.40;5.57;;;45.00;29.90;;;;;;5034247;28;20108;-74
2021/07/25 12:35:09;;;;;;;6.10;5.18;;;43.90;30.40;;;;;;5034026;28;20037;-73
2021/07/25 12:37:46;;;;;;;6.65;5.80;;;43.50;31.00;;;;;;5034193;28;20076;-75
2021/07/25 12:40:29;;;;;;;7.07;5.65;;;43.70;31.00;;;;;;5034267;28;20468;-74
2021/07/25 12:42:57;;;;;;;5.47;5.00;;;44.20;30.90;;;;;;5034084;28;20104;-73